createdAt,value
2016-12-07T00:00:22.910Z,-86
2016-12-07T00:01:23.052Z,-86
2016-12-07T00:02:23.012Z,-86
2016-12-07T00:03:22.984Z,-86
2016-12-07T00:04:23.122Z,-86
2016-12-07T00:05:22.999Z,-86
2016-12-07T00:06:22.987Z,-86
2016-12-07T00:07:22.987Z,-86
2016-12-07T00:08:23.087Z,-85
2016-12-07T00:09:23.035Z,-85
2016-12-07T00:10:23.150Z,-86
2016-12-07T00:11:22.995Z,-86
2016-12-07T00:12:23.164Z,-86
2016-12-07T00:13:23.212Z,-86
2016-12-07T00:14:22.958Z,-86
2016-12-07T00:15:23.031Z,-86
2016-12-07T00:16:23.037Z,-86
2016-12-07T00:17:23.145Z,-86
2016-12-07T00:18:23.273Z,-86
2016-12-07T00:19:23.020Z,-86
2016-12-07T00:20:23.012Z,-86
2016-12-07T00:21:23.176Z,-86
2016-12-07T00:22:23.028Z,-86
2016-12-07T00:23:23.102Z,-86
2016-12-07T00:24:23.154Z,-86
2016-12-07T00:25:23.003Z,-86
2016-12-07T00:26:22.970Z,-85
2016-12-07T00:27:23.218Z,-87
2016-12-07T00:28:23.205Z,-85
2016-12-07T00:29:23.051Z,-85
2016-12-07T00:30:23.176Z,-86
2016-12-07T00:31:23.190Z,-86
2016-12-07T00:32:23.061Z,-86
2016-12-07T00:33:23.239Z,-86
2016-12-07T00:34:23.090Z,-86
2016-12-07T00:35:23.260Z,-86
2016-12-07T00:36:23.079Z,-86
2016-12-07T00:37:23.121Z,-86
2016-12-07T00:38:23.064Z,-86
2016-12-07T00:39:23.286Z,-86
2016-12-07T00:40:23.095Z,-86
2016-12-07T00:41:23.166Z,-86
2016-12-07T00:42:23.163Z,-86
2016-12-07T00:43:23.171Z,-86
2016-12-07T00:44:23.058Z,-86
2016-12-07T00:45:23.204Z,-86
2016-12-07T00:46:23.201Z,-86
2016-12-07T00:47:23.109Z,-86
2016-12-07T00:48:23.109Z,-86
2016-12-07T00:49:23.032Z,-86
2016-12-07T00:50:23.163Z,-86
2016-12-07T00:51:23.202Z,-86
2016-12-07T00:52:23.137Z,-86
2016-12-07T00:53:23.103Z,-86
2016-12-07T00:54:23.233Z,-86
2016-12-07T00:55:23.202Z,-86
2016-12-07T00:56:23.113Z,-86
2016-12-07T00:57:23.131Z,-86
2016-12-07T00:58:23.116Z,-86
2016-12-07T00:59:23.146Z,-86
2016-12-07T01:00:23.292Z,-87
2016-12-07T01:01:23.415Z,-86
2016-12-07T01:02:23.246Z,-86
2016-12-07T01:03:23.217Z,-86
2016-12-07T01:04:23.065Z,-86
2016-12-07T01:05:23.230Z,-86
2016-12-07T01:06:23.377Z,-86
2016-12-07T01:07:23.168Z,-87
2016-12-07T01:08:23.158Z,-86
2016-12-07T01:09:23.101Z,-86
2016-12-07T01:10:23.175Z,-85
2016-12-07T01:11:23.174Z,-86
2016-12-07T01:12:23.267Z,-86
2016-12-07T01:13:23.187Z,-86
2016-12-07T01:14:23.111Z,-86
2016-12-07T01:15:23.099Z,-85
2016-12-07T01:16:23.260Z,-86
2016-12-07T01:17:23.203Z,-86
2016-12-07T01:18:23.183Z,-86
2016-12-07T01:19:23.240Z,-86
2016-12-07T01:20:23.349Z,-85
2016-12-07T01:21:23.120Z,-86
2016-12-07T01:22:23.398Z,-86
2016-12-07T01:23:23.291Z,-86
2016-12-07T01:24:23.230Z,-86
2016-12-07T01:25:23.290Z,-86
2016-12-07T01:26:23.218Z,-86
2016-12-07T01:27:23.229Z,-86
2016-12-07T01:28:23.164Z,-86
2016-12-07T01:29:23.217Z,-86
2016-12-07T01:30:23.230Z,-85
2016-12-07T01:31:23.234Z,-86
2016-12-07T01:32:23.240Z,-85
2016-12-07T01:33:23.503Z,-86
2016-12-07T01:34:23.326Z,-86
2016-12-07T01:35:23.306Z,-87
2016-12-07T01:36:23.305Z,-85
2016-12-07T01:37:23.311Z,-86
2016-12-07T01:38:23.258Z,-86
2016-12-07T01:39:23.339Z,-85
2016-12-07T01:40:23.194Z,-86
2016-12-07T01:41:23.343Z,-85
2016-12-07T01:42:23.261Z,-86
2016-12-07T01:43:23.276Z,-86
2016-12-07T01:44:23.375Z,-86
2016-12-07T01:45:23.335Z,-86
2016-12-07T01:46:23.290Z,-85
2016-12-07T01:47:23.274Z,-86
2016-12-07T01:48:23.364Z,-86
2016-12-07T01:49:23.493Z,-86
2016-12-07T01:50:23.343Z,-86
2016-12-07T01:51:23.384Z,-86
2016-12-07T01:52:23.276Z,-86
2016-12-07T01:53:23.267Z,-86
2016-12-07T01:54:23.317Z,-85
2016-12-07T01:55:23.430Z,-85
2016-12-07T01:56:23.295Z,-86
2016-12-07T01:57:23.302Z,-86
2016-12-07T01:58:23.380Z,-87
2016-12-07T01:59:23.454Z,-86
2016-12-07T02:00:23.404Z,-87
2016-12-07T02:01:23.325Z,-86
2016-12-07T02:02:23.345Z,-86
2016-12-07T02:03:23.315Z,-85
2016-12-07T02:04:23.335Z,-86
2016-12-07T02:05:23.486Z,-86
2016-12-07T02:06:23.422Z,-86
2016-12-07T02:07:23.244Z,-86
2016-12-07T02:08:23.243Z,-86
2016-12-07T02:09:23.332Z,-86
2016-12-07T02:10:23.360Z,-86
2016-12-07T02:11:23.248Z,-86
2016-12-07T02:12:23.454Z,-86
2016-12-07T02:13:23.342Z,-87
2016-12-07T02:14:23.418Z,-86
2016-12-07T02:15:23.346Z,-86
2016-12-07T02:16:23.375Z,-86
2016-12-07T02:17:23.439Z,-85
2016-12-07T02:18:23.660Z,-86
2016-12-07T02:19:23.351Z,-86
2016-12-07T02:20:23.313Z,-86
2016-12-07T02:21:23.319Z,-86
2016-12-07T02:22:23.590Z,-86
2016-12-07T02:23:23.271Z,-85
2016-12-07T02:24:23.370Z,-86
2016-12-07T02:25:23.435Z,-86
2016-12-07T02:26:23.491Z,-87
2016-12-07T02:27:23.406Z,-86
2016-12-07T02:28:23.299Z,-86
2016-12-07T02:29:23.402Z,-86
2016-12-07T02:30:23.469Z,-86
2016-12-07T02:31:23.576Z,-86
2016-12-07T02:32:23.335Z,-86
2016-12-07T02:33:23.391Z,-85
2016-12-07T02:34:23.559Z,-86
2016-12-07T02:35:23.476Z,-86
2016-12-07T02:36:23.812Z,-86
2016-12-07T02:37:23.355Z,-87
2016-12-07T02:38:23.417Z,-86
2016-12-07T02:39:23.484Z,-86
2016-12-07T02:40:23.413Z,-86
2016-12-07T02:41:23.403Z,-85
2016-12-07T02:42:23.773Z,-86
2016-12-07T02:43:23.422Z,-86
2016-12-07T02:44:23.505Z,-86
2016-12-07T02:45:23.655Z,-86
2016-12-07T02:46:23.581Z,-86
2016-12-07T02:47:23.461Z,-86
2016-12-07T02:48:23.538Z,-85
2016-12-07T02:49:23.429Z,-86
2016-12-07T02:50:23.458Z,-86
2016-12-07T02:51:23.460Z,-86
2016-12-07T02:52:23.621Z,-86
2016-12-07T02:53:23.645Z,-86
2016-12-07T02:54:23.443Z,-87
2016-12-07T02:55:23.523Z,-86
2016-12-07T02:56:23.456Z,-86
2016-12-07T02:57:23.537Z,-86
2016-12-07T02:58:23.495Z,-86
2016-12-07T02:59:23.613Z,-86
2016-12-07T03:00:23.556Z,-86
2016-12-07T03:01:23.478Z,-86
2016-12-07T03:02:23.545Z,-86
2016-12-07T03:03:23.659Z,-86
2016-12-07T03:04:23.584Z,-86
2016-12-07T03:05:23.567Z,-86
2016-12-07T03:06:23.575Z,-86
2016-12-07T03:07:23.581Z,-86
2016-12-07T03:08:23.572Z,-85
2016-12-07T03:09:23.600Z,-86
2016-12-07T03:10:23.500Z,-85
2016-12-07T03:11:23.611Z,-85
2016-12-07T03:12:23.794Z,-85
2016-12-07T03:13:23.630Z,-86
2016-12-07T03:14:23.632Z,-86
2016-12-07T03:15:23.522Z,-85
2016-12-07T03:16:23.741Z,-85
2016-12-07T03:17:23.680Z,-86
2016-12-07T03:18:23.549Z,-86
2016-12-07T03:19:23.616Z,-86
2016-12-07T03:20:23.717Z,-87
2016-12-07T03:21:23.631Z,-86
2016-12-07T03:22:23.720Z,-86
2016-12-07T03:23:23.723Z,-86
2016-12-07T03:24:23.471Z,-87
2016-12-07T03:25:23.688Z,-86
2016-12-07T03:26:23.505Z,-86
2016-12-07T03:27:23.547Z,-86
2016-12-07T03:28:23.568Z,-86
2016-12-07T03:29:23.643Z,-86
2016-12-07T03:30:23.531Z,-85
2016-12-07T03:31:23.705Z,-85
2016-12-07T03:32:23.564Z,-87
2016-12-07T03:33:23.760Z,-86
2016-12-07T03:34:23.609Z,-85
2016-12-07T03:35:23.580Z,-86
2016-12-07T03:36:23.712Z,-86
2016-12-07T03:37:23.666Z,-85
2016-12-07T03:38:35.320Z,-86
2016-12-07T03:39:23.757Z,-86
2016-12-07T03:40:23.687Z,-86
2016-12-07T03:41:23.888Z,-86
2016-12-07T03:42:24.018Z,-85
2016-12-07T03:43:23.826Z,-86
2016-12-07T03:44:23.852Z,-86
2016-12-07T03:45:23.726Z,-86
2016-12-07T03:46:23.810Z,-86
2016-12-07T03:47:23.776Z,-86
2016-12-07T03:48:23.732Z,-86
2016-12-07T03:49:23.857Z,-85
2016-12-07T03:50:23.655Z,-86
2016-12-07T03:51:23.947Z,-85
2016-12-07T03:52:23.695Z,-86
2016-12-07T03:53:23.893Z,-86
2016-12-07T03:54:23.717Z,-86
2016-12-07T03:55:23.713Z,-86
2016-12-07T03:56:23.779Z,-85
2016-12-07T03:57:23.876Z,-85
2016-12-07T03:58:23.649Z,-86
2016-12-07T03:59:23.731Z,-86
2016-12-07T04:00:23.744Z,-86
2016-12-07T04:01:23.726Z,-86
2016-12-07T04:02:23.784Z,-87
2016-12-07T04:03:23.776Z,-86
2016-12-07T04:04:23.651Z,-86
2016-12-07T04:05:23.676Z,-85
2016-12-07T04:06:23.680Z,-86
2016-12-07T04:07:23.829Z,-86
2016-12-07T04:08:23.704Z,-86
2016-12-07T04:09:23.763Z,-86
2016-12-07T04:10:23.879Z,-86
2016-12-07T04:11:23.790Z,-86
2016-12-07T04:12:23.691Z,-86
2016-12-07T04:13:23.698Z,-86
2016-12-07T04:14:23.801Z,-86
2016-12-07T04:15:23.932Z,-86
2016-12-07T04:16:23.701Z,-86
2016-12-07T04:17:23.717Z,-86
2016-12-07T04:18:23.718Z,-86
2016-12-07T04:19:23.814Z,-86
2016-12-07T04:20:23.717Z,-87
2016-12-07T04:21:23.894Z,-86
2016-12-07T04:22:23.855Z,-86
2016-12-07T04:23:23.922Z,-86
2016-12-07T04:24:23.741Z,-86
2016-12-07T04:25:23.794Z,-86
2016-12-07T04:26:23.630Z,-86
2016-12-07T04:27:24.099Z,-86
2016-12-07T04:28:23.648Z,-86
2016-12-07T04:29:24.008Z,-86
2016-12-07T04:30:23.804Z,-85
2016-12-07T04:31:23.814Z,-86
2016-12-07T04:32:23.930Z,-85
2016-12-07T04:33:23.918Z,-86
2016-12-07T04:34:23.850Z,-86
2016-12-07T04:35:23.773Z,-86
2016-12-07T04:36:23.684Z,-85
2016-12-07T04:37:23.822Z,-86
2016-12-07T04:38:23.845Z,-86
2016-12-07T04:39:23.702Z,-86
2016-12-07T04:40:23.710Z,-85
2016-12-07T04:41:23.834Z,-85
2016-12-07T04:42:23.847Z,-86
2016-12-07T04:43:23.746Z,-85
2016-12-07T04:44:23.771Z,-86
2016-12-07T04:45:24.308Z,-86
2016-12-07T04:46:23.761Z,-86
2016-12-07T04:47:23.866Z,-85
2016-12-07T04:48:23.913Z,-86
2016-12-07T04:49:23.919Z,-86
2016-12-07T04:50:23.816Z,-86
2016-12-07T04:51:23.873Z,-86
2016-12-07T04:52:23.726Z,-85
2016-12-07T04:53:23.894Z,-86
2016-12-07T04:54:23.856Z,-86
2016-12-07T04:55:23.960Z,-85
2016-12-07T04:56:23.864Z,-86
2016-12-07T04:57:23.920Z,-86
2016-12-07T04:58:23.928Z,-85
2016-12-07T04:59:23.822Z,-86
2016-12-07T05:00:23.733Z,-86
2016-12-07T05:01:23.909Z,-86
2016-12-07T05:02:23.899Z,-86
2016-12-07T05:03:23.985Z,-86
2016-12-07T05:04:23.763Z,-86
2016-12-07T05:05:23.835Z,-86
2016-12-07T05:06:23.985Z,-86
2016-12-07T05:07:23.938Z,-85
2016-12-07T05:08:23.941Z,-86
2016-12-07T05:09:23.971Z,-86
2016-12-07T05:10:23.949Z,-86
2016-12-07T05:11:23.847Z,-86
2016-12-07T05:12:24.069Z,-86
2016-12-07T05:13:23.906Z,-86
2016-12-07T05:14:23.860Z,-86
2016-12-07T05:15:23.973Z,-86
2016-12-07T05:16:24.102Z,-85
2016-12-07T05:17:24.051Z,-86
2016-12-07T05:18:23.907Z,-86
2016-12-07T05:19:24.055Z,-86
2016-12-07T05:20:24.024Z,-86
2016-12-07T05:21:23.862Z,-86
2016-12-07T05:22:24.090Z,-86
2016-12-07T05:23:24.112Z,-86
2016-12-07T05:24:24.073Z,-86
2016-12-07T05:25:24.070Z,-86
2016-12-07T05:26:23.949Z,-85
2016-12-07T05:27:24.067Z,-86
2016-12-07T05:28:23.887Z,-86
2016-12-07T05:29:23.988Z,-86
2016-12-07T05:30:23.895Z,-85
2016-12-07T05:31:23.987Z,-86
2016-12-07T05:32:23.887Z,-86
2016-12-07T05:33:24.121Z,-86
2016-12-07T05:34:23.973Z,-85
2016-12-07T05:35:24.089Z,-85
2016-12-07T05:36:24.168Z,-86
2016-12-07T05:37:23.939Z,-86
2016-12-07T05:38:24.023Z,-86
2016-12-07T05:39:23.831Z,-86
2016-12-07T05:40:23.995Z,-86
2016-12-07T05:41:24.011Z,-86
2016-12-07T05:42:24.001Z,-86
2016-12-07T05:43:23.992Z,-86
2016-12-07T05:44:24.134Z,-87
2016-12-07T05:45:23.953Z,-85
2016-12-07T05:46:24.092Z,-86
2016-12-07T05:47:24.063Z,-86
2016-12-07T05:48:24.023Z,-86
2016-12-07T05:49:24.213Z,-86
2016-12-07T05:50:24.071Z,-86
2016-12-07T05:51:24.043Z,-86
2016-12-07T05:52:23.880Z,-86
2016-12-07T05:53:24.052Z,-86
2016-12-07T05:54:23.934Z,-86
2016-12-07T05:55:24.121Z,-86
2016-12-07T05:56:24.005Z,-85
2016-12-07T05:57:23.899Z,-86
2016-12-07T05:58:24.122Z,-86
2016-12-07T05:59:24.217Z,-86
2016-12-07T06:00:24.119Z,-86
2016-12-07T06:01:23.979Z,-86
2016-12-07T06:02:23.974Z,-86
2016-12-07T06:03:24.067Z,-86
2016-12-07T06:04:24.006Z,-86
2016-12-07T06:05:24.181Z,-86
2016-12-07T06:06:24.147Z,-86
2016-12-07T06:07:24.017Z,-85
2016-12-07T06:08:24.115Z,-85
2016-12-07T06:09:23.915Z,-85
2016-12-07T06:10:24.048Z,-86
2016-12-07T06:11:24.104Z,-86
2016-12-07T06:12:24.008Z,-86
2016-12-07T06:13:24.028Z,-86
2016-12-07T06:14:24.022Z,-86
2016-12-07T06:15:24.019Z,-86
2016-12-07T06:16:24.106Z,-87
2016-12-07T06:17:24.108Z,-86
2016-12-07T06:18:24.241Z,-86
2016-12-07T06:19:24.020Z,-86
2016-12-07T06:20:24.187Z,-86
2016-12-07T06:21:24.266Z,-86
2016-12-07T06:22:24.191Z,-85
2016-12-07T06:23:24.104Z,-86
2016-12-07T06:24:24.044Z,-86
2016-12-07T06:25:24.396Z,-86
2016-12-07T06:26:24.220Z,-86
2016-12-07T06:27:24.153Z,-86
2016-12-07T06:28:24.128Z,-86
2016-12-07T06:29:23.999Z,-86
2016-12-07T06:30:24.096Z,-85
2016-12-07T06:31:24.248Z,-86
2016-12-07T06:32:24.164Z,-86
2016-12-07T06:33:24.190Z,-85
2016-12-07T06:34:24.065Z,-86
2016-12-07T06:35:24.146Z,-86
2016-12-07T06:36:24.098Z,-86
2016-12-07T06:37:24.114Z,-86
2016-12-07T06:38:24.234Z,-86
2016-12-07T06:39:24.040Z,-86
2016-12-07T06:40:24.094Z,-86
2016-12-07T06:41:24.188Z,-86
2016-12-07T06:42:24.252Z,-86
2016-12-07T06:43:24.090Z,-85
2016-12-07T06:44:24.167Z,-86
2016-12-07T06:45:24.242Z,-86
2016-12-07T06:46:24.187Z,-86
2016-12-07T06:47:24.200Z,-85
2016-12-07T06:48:24.360Z,-86
2016-12-07T06:49:24.232Z,-86
2016-12-07T06:50:24.124Z,-85
2016-12-07T06:51:24.318Z,-86
2016-12-07T06:52:24.158Z,-86
2016-12-07T06:53:24.228Z,-85
2016-12-07T06:54:24.127Z,-86
2016-12-07T06:55:24.120Z,-86
2016-12-07T06:56:24.524Z,-86
2016-12-07T06:57:24.400Z,-86
2016-12-07T06:58:24.217Z,-86
2016-12-07T06:59:24.122Z,-86
2016-12-07T07:00:24.255Z,-86
2016-12-07T07:01:24.333Z,-86
2016-12-07T07:02:24.241Z,-86
2016-12-07T07:03:24.148Z,-86
2016-12-07T07:04:24.219Z,-85
2016-12-07T07:05:24.195Z,-86
2016-12-07T07:06:24.209Z,-86
2016-12-07T07:07:24.227Z,-85
2016-12-07T07:08:24.221Z,-87
2016-12-07T07:09:24.184Z,-87
2016-12-07T07:10:24.078Z,-87
2016-12-07T07:11:24.347Z,-87
2016-12-07T07:12:24.295Z,-87
2016-12-07T07:13:24.130Z,-87
2016-12-07T07:14:24.466Z,-87
2016-12-07T07:15:24.107Z,-87
2016-12-07T07:16:24.985Z,-87
2016-12-07T07:17:24.437Z,-87
2016-12-07T07:18:24.284Z,-87
2016-12-07T07:19:24.304Z,-86
2016-12-07T07:20:24.420Z,-87
2016-12-07T07:21:24.430Z,-87
2016-12-07T07:22:24.272Z,-87
2016-12-07T07:23:24.276Z,-87
2016-12-07T07:24:24.331Z,-87
2016-12-07T07:25:24.296Z,-86
2016-12-07T07:26:24.216Z,-87
2016-12-07T07:27:24.374Z,-87
2016-12-07T07:28:24.385Z,-88
2016-12-07T07:29:24.216Z,-87
2016-12-07T07:30:24.227Z,-87
2016-12-07T07:31:24.308Z,-88
2016-12-07T07:32:24.251Z,-87
2016-12-07T07:33:24.218Z,-87
2016-12-07T07:34:24.655Z,-87
2016-12-07T07:35:24.383Z,-87
2016-12-07T07:36:24.161Z,-87
2016-12-07T07:37:24.333Z,-87
2016-12-07T07:38:24.216Z,-86
2016-12-07T07:39:24.437Z,-88
2016-12-07T07:40:24.237Z,-87
2016-12-07T07:41:24.193Z,-87
2016-12-07T07:42:24.335Z,-87
2016-12-07T07:43:24.473Z,-87
2016-12-07T07:44:24.342Z,-87
2016-12-07T07:45:24.232Z,-87
2016-12-07T07:46:24.401Z,-87
2016-12-07T07:47:24.311Z,-87
2016-12-07T07:48:24.396Z,-87
2016-12-07T07:49:24.413Z,-87
2016-12-07T07:50:24.297Z,-87
2016-12-07T07:51:24.489Z,-87
2016-12-07T07:52:24.306Z,-87
2016-12-07T07:53:24.326Z,-87
2016-12-07T07:54:24.425Z,-87
2016-12-07T07:55:24.345Z,-87
2016-12-07T07:56:24.413Z,-87
2016-12-07T07:57:24.385Z,-87
2016-12-07T07:58:24.715Z,-87
2016-12-07T07:59:24.505Z,-87
2016-12-07T08:00:24.329Z,-87
2016-12-07T08:01:24.375Z,-87
2016-12-07T08:02:24.320Z,-87
2016-12-07T08:03:24.413Z,-86
2016-12-07T08:04:24.310Z,-87
2016-12-07T08:05:24.326Z,-87
2016-12-07T08:06:24.304Z,-87
2016-12-07T08:07:24.387Z,-86
2016-12-07T08:08:24.398Z,-87
2016-12-07T08:09:24.341Z,-87
2016-12-07T08:10:24.318Z,-87
2016-12-07T08:11:24.369Z,-87
2016-12-07T08:12:24.387Z,-87
2016-12-07T08:13:24.725Z,-87
2016-12-07T08:14:24.321Z,-87
2016-12-07T08:15:24.435Z,-87
2016-12-07T08:16:24.472Z,-87
2016-12-07T08:17:24.248Z,-87
2016-12-07T08:18:24.528Z,-87
2016-12-07T08:19:24.354Z,-87
2016-12-07T08:20:24.664Z,-87
2016-12-07T08:21:24.614Z,-86
2016-12-07T08:22:24.493Z,-87
2016-12-07T08:23:24.263Z,-87
2016-12-07T08:24:24.538Z,-87
2016-12-07T08:25:24.470Z,-87
2016-12-07T08:26:24.419Z,-87
2016-12-07T08:27:24.353Z,-88
2016-12-07T08:28:24.689Z,-86
2016-12-07T08:29:24.564Z,-87
2016-12-07T08:30:24.407Z,-88
2016-12-07T08:31:24.479Z,-87
2016-12-07T08:32:24.382Z,-87
2016-12-07T08:33:24.546Z,-87
2016-12-07T08:34:24.472Z,-87
2016-12-07T08:35:24.368Z,-87
2016-12-07T08:36:24.387Z,-88
2016-12-07T08:37:24.408Z,-87
2016-12-07T08:38:24.472Z,-88
2016-12-07T08:39:24.557Z,-87
2016-12-07T08:40:24.350Z,-88
2016-12-07T08:41:24.634Z,-87
2016-12-07T08:42:24.611Z,-87
2016-12-07T08:43:24.334Z,-87
2016-12-07T08:44:24.596Z,-87
2016-12-07T08:45:24.520Z,-88
2016-12-07T08:46:26.925Z,-87
2016-12-07T08:47:25.777Z,-88
2016-12-07T08:48:25.231Z,-87
2016-12-07T08:49:25.759Z,-87
2016-12-07T08:50:31.329Z,-88
2016-12-07T08:51:28.629Z,-87
2016-12-07T08:52:24.435Z,-87
2016-12-07T08:53:24.540Z,-87
2016-12-07T08:54:24.712Z,-87
2016-12-07T08:55:24.708Z,-88
2016-12-07T08:56:24.614Z,-87
2016-12-07T08:57:24.721Z,-87
2016-12-07T08:58:24.830Z,-87
2016-12-07T08:59:24.864Z,-87
2016-12-07T09:00:24.685Z,-87
2016-12-07T09:01:24.546Z,-87
2016-12-07T09:02:24.529Z,-88
2016-12-07T09:03:24.507Z,-87
2016-12-07T09:04:24.566Z,-87
2016-12-07T09:05:24.722Z,-87
2016-12-07T09:06:24.554Z,-87
2016-12-07T09:07:24.684Z,-87
2016-12-07T09:08:24.751Z,-87
2016-12-07T09:09:24.618Z,-87
2016-12-07T09:10:24.699Z,-88
2016-12-07T09:11:24.640Z,-87
2016-12-07T09:12:24.664Z,-87
2016-12-07T09:13:24.513Z,-88
2016-12-07T09:14:24.524Z,-88
2016-12-07T09:15:24.460Z,-88
2016-12-07T09:16:24.564Z,-87
2016-12-07T09:17:24.798Z,-87
2016-12-07T09:18:24.595Z,-88
2016-12-07T09:19:24.493Z,-87
2016-12-07T09:20:25.126Z,-87
2016-12-07T09:21:25.017Z,-88
2016-12-07T09:22:24.870Z,-87
2016-12-07T09:23:24.860Z,-87
2016-12-07T09:24:24.665Z,-88
2016-12-07T09:25:24.822Z,-88
2016-12-07T09:26:24.732Z,-92
2016-12-07T09:27:24.565Z,-90
2016-12-07T09:28:24.557Z,-91
2016-12-07T09:29:24.533Z,-91
2016-12-07T09:30:24.981Z,-91
2016-12-07T09:31:24.762Z,-91
2016-12-07T09:32:24.780Z,-91
2016-12-07T09:33:25.368Z,-91
2016-12-07T09:34:24.663Z,-90
2016-12-07T09:35:24.734Z,-91
2016-12-07T09:36:24.742Z,-91
2016-12-07T09:37:24.677Z,-91
2016-12-07T09:38:24.734Z,-92
2016-12-07T09:39:24.765Z,-89
2016-12-07T09:40:24.555Z,-88
2016-12-07T09:41:24.859Z,-88
2016-12-07T09:42:24.779Z,-88
2016-12-07T09:43:24.663Z,-88
2016-12-07T09:44:25.648Z,-88
2016-12-07T09:45:24.709Z,-88
2016-12-07T09:46:24.955Z,-88
2016-12-07T09:47:24.711Z,-88
2016-12-07T09:48:24.786Z,-88
2016-12-07T09:49:24.841Z,-88
2016-12-07T09:50:24.651Z,-87
2016-12-07T09:51:25.124Z,-88
2016-12-07T09:52:25.332Z,-88
2016-12-07T09:53:25.178Z,-88
2016-12-07T09:54:24.968Z,-88
2016-12-07T09:55:24.798Z,-88
2016-12-07T09:56:24.566Z,-89
2016-12-07T09:57:24.644Z,-88
2016-12-07T09:58:24.678Z,-88
2016-12-07T09:59:24.567Z,-88
2016-12-07T10:00:24.764Z,-87
2016-12-07T10:01:24.817Z,-87
2016-12-07T10:02:24.839Z,-87
2016-12-07T10:03:24.899Z,-87
2016-12-07T10:04:24.676Z,-88
2016-12-07T10:05:25.123Z,-88
2016-12-07T10:06:24.956Z,-88
2016-12-07T10:07:24.710Z,-88
2016-12-07T10:08:24.726Z,-88
2016-12-07T10:09:24.905Z,-88
2016-12-07T10:10:24.760Z,-87
2016-12-07T10:11:24.816Z,-87
2016-12-07T10:12:24.740Z,-88
2016-12-07T10:13:24.642Z,-87
2016-12-07T10:14:24.921Z,-87
2016-12-07T10:15:24.765Z,-89
2016-12-07T10:16:24.712Z,-88
2016-12-07T10:17:24.652Z,-88
2016-12-07T10:18:24.784Z,-88
2016-12-07T10:19:24.759Z,-88
2016-12-07T10:20:24.908Z,-88
2016-12-07T10:21:24.886Z,-88
2016-12-07T10:22:24.841Z,-88
2016-12-07T10:23:24.720Z,-88
2016-12-07T10:24:24.850Z,-88
2016-12-07T10:25:24.797Z,-88
2016-12-07T10:26:25.731Z,-88
2016-12-07T10:27:24.738Z,-88
2016-12-07T10:28:24.907Z,-88
2016-12-07T10:29:24.699Z,-89
2016-12-07T10:30:24.717Z,-88
2016-12-07T10:31:24.812Z,-88
2016-12-07T10:32:25.030Z,-89
2016-12-07T10:33:24.960Z,-88
2016-12-07T10:34:24.803Z,-88
2016-12-07T10:35:24.735Z,-88
2016-12-07T10:36:24.883Z,-87
2016-12-07T10:37:24.914Z,-88
2016-12-07T10:38:24.814Z,-89
2016-12-07T10:39:24.870Z,-87
2016-12-07T10:40:24.883Z,-88
2016-12-07T10:41:24.843Z,-89
2016-12-07T10:42:24.858Z,-88
2016-12-07T10:43:24.803Z,-88
2016-12-07T10:44:24.697Z,-87
2016-12-07T10:45:24.875Z,-88
2016-12-07T10:46:24.909Z,-88
2016-12-07T10:47:26.532Z,-88
2016-12-07T10:48:26.200Z,-88
2016-12-07T10:49:26.885Z,-87
2016-12-07T10:50:26.548Z,-87
2016-12-07T10:51:26.480Z,-88
2016-12-07T10:52:25.027Z,-88
2016-12-07T10:53:24.923Z,-88
2016-12-07T10:54:25.055Z,-87
2016-12-07T10:55:24.982Z,-88
2016-12-07T10:56:25.053Z,-88
2016-12-07T10:57:24.996Z,-88
2016-12-07T10:58:25.268Z,-88
2016-12-07T10:59:24.907Z,-88
2016-12-07T11:00:25.063Z,-88
2016-12-07T11:01:24.943Z,-88
2016-12-07T11:02:24.900Z,-88
2016-12-07T11:03:25.576Z,-87
2016-12-07T11:04:25.151Z,-87
2016-12-07T11:05:25.574Z,-88
2016-12-07T11:06:25.604Z,-88
2016-12-07T11:07:25.060Z,-88
2016-12-07T11:08:25.082Z,-88
2016-12-07T11:09:25.731Z,-88
2016-12-07T11:10:25.087Z,-89
2016-12-07T11:11:25.273Z,-88
2016-12-07T11:12:25.138Z,-88
2016-12-07T11:13:25.385Z,-88
2016-12-07T11:14:25.926Z,-88
2016-12-07T11:15:25.175Z,-87
2016-12-07T11:16:25.185Z,-89
2016-12-07T11:17:25.385Z,-88
2016-12-07T11:18:24.950Z,-89
2016-12-07T11:19:25.022Z,-87
2016-12-07T11:20:25.140Z,-88
2016-12-07T11:21:25.526Z,-88
2016-12-07T11:22:25.166Z,-89
2016-12-07T11:23:24.906Z,-88
2016-12-07T11:24:24.957Z,-89
2016-12-07T11:25:25.033Z,-88
2016-12-07T11:26:25.130Z,-89
2016-12-07T11:27:25.292Z,-89
2016-12-07T11:28:24.992Z,-89
2016-12-07T11:29:25.023Z,-88
2016-12-07T11:30:25.787Z,-89
2016-12-07T11:31:25.120Z,-90
2016-12-07T11:32:25.087Z,-88
2016-12-07T11:33:25.209Z,-89
2016-12-07T11:34:25.277Z,-89
2016-12-07T11:35:25.290Z,-89
2016-12-07T11:36:25.293Z,-90
2016-12-07T11:37:25.016Z,-88
2016-12-07T11:38:25.119Z,-88
2016-12-07T11:39:25.229Z,-89
2016-12-07T11:40:24.918Z,-89
2016-12-07T11:41:25.345Z,-88
2016-12-07T11:42:25.099Z,-88
2016-12-07T11:43:25.199Z,-89
2016-12-07T11:44:25.065Z,-89
2016-12-07T11:45:25.094Z,-89
2016-12-07T11:46:25.144Z,-86
2016-12-07T11:47:25.102Z,-87
2016-12-07T11:48:25.098Z,-88
2016-12-07T11:49:25.168Z,-88
2016-12-07T11:50:25.035Z,-89
2016-12-07T11:51:25.205Z,-88
2016-12-07T11:52:24.926Z,-89
2016-12-07T11:53:25.019Z,-89
2016-12-07T11:54:25.186Z,-88
2016-12-07T11:55:25.039Z,-89
2016-12-07T11:56:25.260Z,-90
2016-12-07T11:57:25.165Z,-90
2016-12-07T11:58:25.120Z,-89
2016-12-07T11:59:24.999Z,-89
2016-12-07T12:00:25.081Z,-89
2016-12-07T12:01:25.087Z,-90
2016-12-07T12:02:25.160Z,-89
2016-12-07T12:03:25.089Z,-89
2016-12-07T12:04:24.978Z,-87
2016-12-07T12:05:25.132Z,-87
2016-12-07T12:06:25.151Z,-89
2016-12-07T12:07:25.055Z,-88
2016-12-07T12:08:24.933Z,-89
2016-12-07T12:09:25.188Z,-89
2016-12-07T12:10:24.954Z,-89
2016-12-07T12:11:25.102Z,-89
2016-12-07T12:12:25.034Z,-89
2016-12-07T12:13:26.126Z,-88
2016-12-07T12:14:25.162Z,-88
2016-12-07T12:15:25.555Z,-89
2016-12-07T12:16:25.183Z,-88
2016-12-07T12:17:25.111Z,-89
2016-12-07T12:18:25.158Z,-90
2016-12-07T12:19:25.190Z,-90
2016-12-07T12:20:25.113Z,-89
2016-12-07T12:21:26.731Z,-89
2016-12-07T12:22:25.182Z,-89
2016-12-07T12:23:25.345Z,-89
2016-12-07T12:24:25.215Z,-90
2016-12-07T12:25:25.188Z,-89
2016-12-07T12:26:25.330Z,-88
2016-12-07T12:27:25.305Z,-89
2016-12-07T12:28:25.268Z,-89
2016-12-07T12:29:25.314Z,-88
2016-12-07T12:30:25.261Z,-88
2016-12-07T12:31:25.032Z,-88
2016-12-07T12:32:25.293Z,-88
2016-12-07T12:33:25.249Z,-89
2016-12-07T12:34:25.606Z,-88
2016-12-07T12:35:25.853Z,-88
2016-12-07T12:36:25.656Z,-88
2016-12-07T12:37:25.662Z,-88
2016-12-07T12:38:25.397Z,-89
2016-12-07T12:39:25.542Z,-88
2016-12-07T12:40:25.108Z,-88
2016-12-07T12:41:25.393Z,-88
2016-12-07T12:42:25.373Z,-89
2016-12-07T12:43:25.327Z,-88
2016-12-07T12:44:25.109Z,-88
2016-12-07T12:45:25.507Z,-89
2016-12-07T12:46:25.544Z,-90
2016-12-07T12:47:26.317Z,-88
2016-12-07T12:48:25.386Z,-89
2016-12-07T12:49:25.151Z,-89
2016-12-07T12:50:25.078Z,-89
2016-12-07T12:51:25.239Z,-89
2016-12-07T12:52:25.320Z,-89
2016-12-07T12:53:25.263Z,-89
2016-12-07T12:54:25.557Z,-89
2016-12-07T12:55:25.249Z,-89
2016-12-07T12:56:25.397Z,-88
2016-12-07T12:57:25.430Z,-89
2016-12-07T12:58:25.063Z,-90
2016-12-07T12:59:25.369Z,-89
2016-12-07T13:00:25.146Z,-90
2016-12-07T13:01:25.336Z,-88
2016-12-07T13:02:26.089Z,-90
2016-12-07T13:03:25.175Z,-90
2016-12-07T13:04:25.346Z,-90
2016-12-07T13:05:25.394Z,-90
2016-12-07T13:06:25.201Z,-90
2016-12-07T13:07:25.221Z,-90
2016-12-07T13:08:25.561Z,-90
2016-12-07T13:09:25.387Z,-90
2016-12-07T13:10:25.180Z,-90
2016-12-07T13:11:25.583Z,-90
2016-12-07T13:12:25.239Z,-90
2016-12-07T13:13:25.370Z,-90
2016-12-07T13:14:25.383Z,-89
2016-12-07T13:15:25.240Z,-89
2016-12-07T13:16:25.258Z,-90
2016-12-07T13:17:25.409Z,-89
2016-12-07T13:18:25.225Z,-91
2016-12-07T13:19:25.181Z,-91
2016-12-07T13:20:25.309Z,-92
2016-12-07T13:21:25.159Z,-92
2016-12-07T13:22:25.295Z,-91
2016-12-07T13:23:25.385Z,-91
2016-12-07T13:24:25.243Z,-91
2016-12-07T13:25:25.553Z,-92
2016-12-07T13:26:26.648Z,-91
2016-12-07T13:27:25.344Z,-92
2016-12-07T13:28:25.176Z,-91
2016-12-07T13:29:25.374Z,-92
2016-12-07T13:30:25.394Z,-92
2016-12-07T13:31:25.456Z,-91
2016-12-07T13:32:26.735Z,-91
2016-12-07T13:33:25.236Z,-92
2016-12-07T13:34:25.608Z,-91
2016-12-07T13:35:25.251Z,-92
2016-12-07T13:36:25.639Z,-91
2016-12-07T13:37:25.261Z,-91
2016-12-07T13:38:25.367Z,-92
2016-12-07T13:39:25.346Z,-92
2016-12-07T13:40:25.321Z,-91
2016-12-07T13:41:25.374Z,-92
2016-12-07T13:42:25.386Z,-92
2016-12-07T13:43:25.307Z,-92
2016-12-07T13:44:25.268Z,-92
2016-12-07T13:45:25.469Z,-92
2016-12-07T13:46:25.335Z,-92